sensor_id;sensor_type;location;lat;lon;timestamp;pressure;altitude;pressure_sealevel;temperature;humidity
57904;BME280;43720;47.462;19.030;2023-05-15T03:55:41;99583.03;;;12.18;100.00
57904;BME280;43720;47.462;19.030;2023-05-15T03:58:43;99590.06;;;12.13;100.00
57904;BME280;43720;47.462;19.030;2023-05-15T04:01:45;99585.69;;;12.14;100.00
57904;BME280;43720;47.462;19.030;2023-05-15T04:05:06;99584.75;;;12.29;100.00
57904;BME280;43720;47.462;19.030;2023-05-15T04:08:09;99582.03;;;12.45;100.00
57904;BME280;43720;47.462;19.030;2023-05-15T04:11:13;99575.00;;;12.49;100.00
57904;BME280;43720;47.462;19.030;2023-05-15T04:14:15;99566.28;;;12.52;100.00
57904;BME280;43720;47.462;19.030;2023-05-15T04:17:18;99561.88;;;12.54;100.00
57904;BME280;43720;47.462;19.030;2023-05-15T04:20:22;99558.41;;;12.52;100.00
57904;BME280;43720;47.462;19.030;2023-05-15T04:23:25;99557.47;;;12.60;100.00
57904;BME280;43720;47.462;19.030;2023-05-15T04:26:27;99564.47;;;12.58;100.00
57904;BME280;43720;47.462;19.030;2023-05-15T04:29:30;99566.25;;;12.53;100.00
57904;BME280;43720;47.462;19.030;2023-05-15T04:32:33;99559.34;;;12.43;100.00
57904;BME280;43720;47.462;19.030;2023-05-15T04:35:35;99567.94;;;12.60;100.00
57904;BME280;43720;47.462;19.030;2023-05-15T04:38:38;99580.22;;;12.57;100.00
57904;BME280;43720;47.462;19.030;2023-05-15T04:41:40;99584.63;;;12.50;100.00
57904;BME280;43720;47.462;19.030;2023-05-15T04:44:42;99589.00;;;12.48;100.00
57904;BME280;43720;47.462;19.030;2023-05-15T04:47:45;99593.38;;;12.46;100.00
57904;BME280;43720;47.462;19.030;2023-05-15T04:50:48;99589.87;;;12.48;100.00
57904;BME280;43720;47.462;19.030;2023-05-15T04:53:50;99593.34;;;12.51;100.00
57904;BME280;43720;47.462;19.030;2023-05-15T04:56:52;99611.66;;;12.58;100.00
57904;BME280;43720;47.462;19.030;2023-05-15T04:59:55;99634.47;;;12.44;100.00
57904;BME280;43720;47.462;19.030;2023-05-15T05:02:58;99631.88;;;12.39;100.00
57904;BME280;43720;47.462;19.030;2023-05-15T05:06:01;99637.09;;;12.47;100.00
57904;BME280;43720;47.462;19.030;2023-05-15T05:09:03;99636.19;;;12.48;100.00
57904;BME280;43720;47.462;19.030;2023-05-15T05:12:06;99637.97;;;12.43;100.00
57904;BME280;43720;47.462;19.030;2023-05-15T05:15:09;99637.13;;;12.36;100.00
57904;BME280;43720;47.462;19.030;2023-05-15T05:18:12;99634.50;;;12.39;100.00
57904;BME280;43720;47.462;19.030;2023-05-15T05:21:14;99644.06;;;12.46;100.00
57904;BME280;43720;47.462;19.030;2023-05-15T05:24:16;99652.81;;;12.47;100.00
57904;BME280;43720;47.462;19.030;2023-05-15T05:27:18;99647.53;;;12.52;100.00
57904;BME280;43720;47.462;19.030;2023-05-15T05:30:21;99651.88;;;12.54;100.00
57904;BME280;43720;47.462;19.030;2023-05-15T05:33:23;99647.47;;;12.61;100.00
57904;BME280;43720;47.462;19.030;2023-05-15T05:36:25;99632.63;;;12.58;100.00
57904;BME280;43720;47.462;19.030;2023-05-15T05:39:28;99631.66;;;12.73;100.00
57904;BME280;43720;47.462;19.030;2023-05-15T05:42:30;99625.56;;;12.74;100.00
57904;BME280;43720;47.462;19.030;2023-05-15T05:45:32;99629.09;;;12.70;100.00
57904;BME280;43720;47.462;19.030;2023-05-15T05:48:35;99632.53;;;12.73;100.00
57904;BME280;43720;47.462;19.030;2023-05-15T05:51:37;99642.94;;;12.93;100.00
57904;BME280;43720;47.462;19.030;2023-05-15T05:54:40;99642.00;;;12.99;100.00
57904;BME280;43720;47.462;19.030;2023-05-15T05:57:43;99653.34;;;13.00;100.00
57904;BME280;43720;47.462;19.030;2023-05-15T06:00:46;99656.84;;;13.03;100.00
57904;BME280;43720;47.462;19.030;2023-05-15T06:03:48;99668.16;;;13.08;100.00
57904;BME280;43720;47.462;19.030;2023-05-15T06:06:50;99648.91;;;13.08;100.00
57904;BME280;43720;47.462;19.030;2023-05-15T06:09:53;99637.50;;;13.15;100.00
57904;BME280;43720;47.462;19.030;2023-05-15T06:12:55;99648.84;;;13.21;100.00
57904;BME280;43720;47.462;19.030;2023-05-15T06:15:58;99663.53;;;13.45;100.00
57904;BME280;43720;47.462;19.030;2023-05-15T06:19:00;99659.22;;;13.38;100.00
57904;BME280;43720;47.462;19.030;2023-05-15T06:22:03;99671.44;;;13.41;100.00
57904;BME280;43720;47.462;19.030;2023-05-15T06:25:05;99667.97;;;13.40;100.00
57904;BME280;43720;47.462;19.030;2023-05-15T06:28:08;99668.72;;;13.50;100.00
57904;BME280;43720;47.462;19.030;2023-05-15T06:31:10;99681.72;;;13.65;100.00
57904;BME280;43720;47.462;19.030;2023-05-15T06:34:13;99676.44;;;13.72;100.00
57904;BME280;43720;47.462;19.030;2023-05-15T06:37:15;99678.12;;;13.74;100.00
57904;BME280;43720;47.462;19.030;2023-05-15T06:40:18;99673.72;;;13.78;100.00
57904;BME280;43720;47.462;19.030;2023-05-15T06:43:20;99666.59;;;13.89;100.00
57904;BME280;43720;47.462;19.030;2023-05-15T06:46:22;99653.34;;;14.01;100.00
57904;BME280;43720;47.462;19.030;2023-05-15T06:49:25;99645.34;;;14.13;100.00
57904;BME280;43720;47.462;19.030;2023-05-15T06:52:28;99638.78;;;14.43;100.00
57904;BME280;43720;47.462;19.030;2023-05-15T06:55:30;99641.25;;;14.60;100.00
57904;BME280;43720;47.462;19.030;2023-05-15T06:58:32;99637.47;;;14.80;100.00
57904;BME280;43720;47.462;19.030;2023-05-15T07:01:35;99629.34;;;14.95;100.00
57904;BME280;43720;47.462;19.030;2023-05-15T07:04:37;99628.47;;;14.93;100.00
57904;BME280;43720;47.462;19.030;2023-05-15T07:07:40;99644.28;;;14.95;100.00
57904;BME280;43720;47.462;19.030;2023-05-15T07:10:42;99645.81;;;15.08;100.00
57904;BME280;43720;47.462;19.030;2023-05-15T07:13:44;99651.28;;;15.48;100.00
57904;BME280;43720;47.462;19.030;2023-05-15T07:16:47;99651.97;;;15.59;100.00
57904;BME280;43720;47.462;19.030;2023-05-15T07:19:49;99650.31;;;15.52;100.00
57904;BME280;43720;47.462;19.030;2023-05-15T07:22:52;99658.53;;;15.35;100.00
57904;BME280;43720;47.462;19.030;2023-05-15T07:25:58;99678.69;;;15.38;100.00
57904;BME280;43720;47.462;19.030;2023-05-15T07:29:00;99678.00;;;15.27;100.00
57904;BME280;43720;47.462;19.030;2023-05-15T07:32:02;99688.53;;;15.27;100.00
57904;BME280;43720;47.462;19.030;2023-05-15T07:35:05;99688.47;;;15.28;100.00
57904;BME280;43720;47.462;19.030;2023-05-15T07:38:07;99684.47;;;15.04;100.00
57904;BME280;43720;47.462;19.030;2023-05-15T07:41:10;99665.56;;;14.79;100.00
57904;BME280;43720;47.462;19.030;2023-05-15T07:44:12;99656.75;;;14.80;100.00
57904;BME280;43720;47.462;19.030;2023-05-15T07:47:16;99646.91;;;14.95;100.00
57904;BME280;43720;47.462;19.030;2023-05-15T07:50:18;99656.69;;;14.85;100.00
57904;BME280;43720;47.462;19.030;2023-05-15T07:53:20;99643.59;;;14.80;100.00
57904;BME280;43720;47.462;19.030;2023-05-15T07:56:22;99654.00;;;14.88;100.00
57904;BME280;43720;47.462;19.030;2023-05-15T07:59:25;99654.81;;;14.95;100.00
57904;BME280;43720;47.462;19.030;2023-05-15T08:02:28;99661.75;;;14.97;100.00
57904;BME280;43720;47.462;19.030;2023-05-15T08:05:30;99680.16;;;15.00;100.00
57904;BME280;43720;47.462;19.030;2023-05-15T08:08:33;99690.78;;;14.92;100.00
57904;BME280;43720;47.462;19.030;2023-05-15T08:11:35;99681.81;;;15.06;100.00
57904;BME280;43720;47.462;19.030;2023-05-15T08:14:37;99685.94;;;15.24;100.00
57904;BME280;43720;47.462;19.030;2023-05-15T08:17:40;99681.16;;;15.47;100.00
57904;BME280;43720;47.462;19.030;2023-05-15T08:20:42;99687.16;;;15.55;100.00
57904;BME280;43720;47.462;19.030;2023-05-15T08:23:44;99682.06;;;15.46;100.00
57904;BME280;43720;47.462;19.030;2023-05-15T08:26:47;99681.13;;;15.49;100.00
57904;BME280;43720;47.462;19.030;2023-05-15T08:29:49;99694.38;;;15.44;100.00
57904;BME280;43720;47.462;19.030;2023-05-15T08:32:51;99689.19;;;15.41;100.00
57904;BME280;43720;47.462;19.030;2023-05-15T08:35:53;99689.81;;;15.55;100.00
57904;BME280;43720;47.462;19.030;2023-05-15T08:38:56;99687.91;;;15.63;100.00
57904;BME280;43720;47.462;19.030;2023-05-15T08:42:20;99686.94;;;15.72;100.00
57904;BME280;43720;47.462;19.030;2023-05-15T08:45:25;99684.97;;;15.82;100.00
57904;BME280;43720;47.462;19.030;2023-05-15T08:48:28;99672.56;;;15.87;100.00
57904;BME280;43720;47.462;19.030;2023-05-15T08:51:31;99669.06;;;15.86;100.00
57904;BME280;43720;47.462;19.030;2023-05-15T08:54:33;99670.78;;;15.89;100.00
57904;BME280;43720;47.462;19.030;2023-05-15T08:57:37;99668.97;;;15.91;100.00
57904;BME280;43720;47.462;19.030;2023-05-15T09:00:45;99661.00;;;15.96;100.00
57904;BME280;43720;47.462;19.030;2023-05-15T09:03:53;99660.72;;;16.11;100.00
57904;BME280;43720;47.462;19.030;2023-05-15T09:06:56;99661.19;;;16.30;100.00
57904;BME280;43720;47.462;19.030;2023-05-15T09:10:01;99668.84;;;16.44;100.00
57904;BME280;43720;47.462;19.030;2023-05-15T09:13:04;99682.78;;;16.49;100.00
57904;BME280;43720;47.462;19.030;2023-05-15T09:16:08;99699.59;;;16.45;100.00
57904;BME280;43720;47.462;19.030;2023-05-15T09:19:14;99692.69;;;16.37;100.00
57904;BME280;43720;47.462;19.030;2023-05-15T09:22:19;99700.00;;;16.25;100.00
57904;BME280;43720;47.462;19.030;2023-05-15T09:25:41;99706.06;;;16.28;100.00
57904;BME280;43720;47.462;19.030;2023-05-15T09:28:45;99711.16;;;16.39;100.00
57904;BME280;43720;47.462;19.030;2023-05-15T09:31:49;99704.69;;;16.54;100.00
57904;BME280;43720;47.462;19.030;2023-05-15T09:34:51;99714.19;;;16.61;100.00
57904;BME280;43720;47.462;19.030;2023-05-15T09:37:58;99721.09;;;16.68;100.00
57904;BME280;43720;47.462;19.030;2023-05-15T09:41:04;99727.37;;;16.62;100.00
57904;BME280;43720;47.462;19.030;2023-05-15T09:44:17;99725.75;;;16.55;100.00
57904;BME280;43720;47.462;19.030;2023-05-15T09:47:22;99717.13;;;16.47;100.00
57904;BME280;43720;47.462;19.030;2023-05-15T09:50:32;99721.44;;;16.51;100.00
57904;BME280;43720;47.462;19.030;2023-05-15T09:53:35;99724.94;;;16.53;100.00
57904;BME280;43720;47.462;19.030;2023-05-15T09:56:43;99712.97;;;16.79;100.00
57904;BME280;43720;47.462;19.030;2023-05-15T09:59:47;99712.59;;;16.96;100.00
57904;BME280;43720;47.462;19.030;2023-05-15T10:02:50;99713.91;;;17.17;100.00
57904;BME280;43720;47.462;19.030;2023-05-15T10:05:59;99711.37;;;17.12;100.00
57904;BME280;43720;47.462;19.030;2023-05-15T10:09:03;99719.94;;;16.83;100.00
57904;BME280;43720;47.462;19.030;2023-05-15T10:12:07;99715.22;;;16.97;100.00
57904;BME280;43720;47.462;19.030;2023-05-15T10:15:10;99712.25;;;17.12;100.00
57904;BME280;43720;47.462;19.030;2023-05-15T10:18:13;99717.09;;;17.31;100.00
57904;BME280;43720;47.462;19.030;2023-05-15T10:21:16;99719.63;;;17.35;100.00
57904;BME280;43720;47.462;19.030;2023-05-15T10:24:20;99718.25;;;17.19;100.00
57904;BME280;43720;47.462;19.030;2023-05-15T10:27:22;99718.97;;;17.26;100.00
57904;BME280;43720;47.462;19.030;2023-05-15T10:30:31;99714.34;;;17.35;100.00
57904;BME280;43720;47.462;19.030;2023-05-15T10:33:41;99720.88;;;17.56;100.00
57904;BME280;43720;47.462;19.030;2023-05-15T10:36:48;99710.16;;;17.63;100.00
57904;BME280;43720;47.462;19.030;2023-05-15T10:39:52;99713.25;;;17.80;93.95
57904;BME280;43720;47.462;19.030;2023-05-15T10:42:58;99721.13;;;17.83;99.06
57904;BME280;43720;47.462;19.030;2023-05-15T10:46:02;99717.22;;;17.96;94.33
57904;BME280;43720;47.462;19.030;2023-05-15T10:49:05;99723.50;;;17.92;92.95
57904;BME280;43720;47.462;19.030;2023-05-15T10:52:08;99723.19;;;17.69;92.42
57904;BME280;43720;47.462;19.030;2023-05-15T10:55:15;99726.53;;;17.78;93.13
57904;BME280;43720;47.462;19.030;2023-05-15T10:58:24;99713.66;;;17.63;90.06
57904;BME280;43720;47.462;19.030;2023-05-15T11:01:28;99710.41;;;17.88;95.35
57904;BME280;43720;47.462;19.030;2023-05-15T11:04:33;99720.03;;;18.24;93.34
57904;BME280;43720;47.462;19.030;2023-05-15T11:07:36;99718.63;;;18.42;90.43
57904;BME280;43720;47.462;19.030;2023-05-15T11:10:38;99718.97;;;18.31;89.12
57904;BME280;43720;47.462;19.030;2023-05-15T11:17:10;99720.75;;;18.92;91.58
57904;BME280;43720;47.462;19.030;2023-05-15T11:20:13;99708.75;;;19.91;84.74
57904;BME280;43720;47.462;19.030;2023-05-15T11:23:20;99701.44;;;19.97;77.87
57904;BME280;43720;47.462;19.030;2023-05-15T11:26:32;99695.41;;;19.67;80.34
57904;BME280;43720;47.462;19.030;2023-05-15T11:29:34;99689.97;;;19.70;81.87
57904;BME280;43720;47.462;19.030;2023-05-15T11:35:56;99694.34;;;19.98;80.84
57904;BME280;43720;47.462;19.030;2023-05-15T11:39:00;99709.69;;;19.63;83.16
57904;BME280;43720;47.462;19.030;2023-05-15T11:42:12;99687.16;;;18.94;78.75
57904;BME280;43720;47.462;19.030;2023-05-15T11:45:14;99696.13;;;18.58;83.42
57904;BME280;43720;47.462;19.030;2023-05-15T11:48:18;99701.16;;;18.37;87.81
57904;BME280;43720;47.462;19.030;2023-05-15T11:51:22;99692.94;;;18.15;83.81
57904;BME280;43720;47.462;19.030;2023-05-15T11:54:26;99694.81;;;18.11;88.83
57904;BME280;43720;47.462;19.030;2023-05-15T11:57:29;99696.56;;;18.12;93.25
57904;BME280;43720;47.462;19.030;2023-05-15T12:00:31;99690.00;;;18.25;91.61
57904;BME280;43720;47.462;19.030;2023-05-15T12:03:35;99698.50;;;18.37;89.46
57904;BME280;43720;47.462;19.030;2023-05-15T12:06:38;99690.94;;;18.24;90.16
57904;BME280;43720;47.462;19.030;2023-05-15T12:09:41;99699.06;;;18.17;91.24
57904;BME280;43720;47.462;19.030;2023-05-15T12:12:44;99695.59;;;18.15;93.96
57904;BME280;43720;47.462;19.030;2023-05-15T12:15:49;99695.56;;;18.47;92.94
57904;BME280;43720;47.462;19.030;2023-05-15T12:18:52;99696.19;;;19.15;88.70
57904;BME280;43720;47.462;19.030;2023-05-15T12:21:55;99693.72;;;19.09;85.88
57904;BME280;43720;47.462;19.030;2023-05-15T12:24:57;99694.88;;;19.01;80.18
57904;BME280;43720;47.462;19.030;2023-05-15T12:28:02;99706.94;;;18.82;86.46
57904;BME280;43720;47.462;19.030;2023-05-15T12:31:05;99708.09;;;18.72;89.92
57904;BME280;43720;47.462;19.030;2023-05-15T12:34:08;99702.75;;;18.73;81.88
57904;BME280;43720;47.462;19.030;2023-05-15T12:37:11;99714.34;;;18.38;80.75
57904;BME280;43720;47.462;19.030;2023-05-15T12:40:21;99716.03;;;18.41;83.72
57904;BME280;43720;47.462;19.030;2023-05-15T12:43:25;99706.59;;;18.32;86.19
57904;BME280;43720;47.462;19.030;2023-05-15T12:46:31;99704.19;;;18.23;86.40
57904;BME280;43720;47.462;19.030;2023-05-15T12:49:36;99712.13;;;18.23;88.16
57904;BME280;43720;47.462;19.030;2023-05-15T12:52:39;99713.31;;;18.11;86.09
57904;BME280;43720;47.462;19.030;2023-05-15T12:55:45;99706.53;;;18.33;89.90
57904;BME280;43720;47.462;19.030;2023-05-15T12:58:49;99693.56;;;18.55;86.37
57904;BME280;43720;47.462;19.030;2023-05-15T13:01:51;99689.56;;;18.72;86.39
57904;BME280;43720;47.462;19.030;2023-05-15T13:04:53;99693.56;;;18.85;83.96
57904;BME280;43720;47.462;19.030;2023-05-15T13:07:58;99685.59;;;18.87;83.55
57904;BME280;43720;47.462;19.030;2023-05-15T13:11:00;99677.03;;;18.78;79.08
57904;BME280;43720;47.462;19.030;2023-05-15T13:14:07;99679.84;;;18.72;79.33
57904;BME280;43720;47.462;19.030;2023-05-15T13:17:10;99681.47;;;19.06;83.74
57904;BME280;43720;47.462;19.030;2023-05-15T13:20:12;99677.97;;;19.32;78.82
57904;BME280;43720;47.462;19.030;2023-05-15T13:23:17;99672.59;;;19.62;78.15
57904;BME280;43720;47.462;19.030;2023-05-15T13:26:19;99667.59;;;19.79;73.36
57904;BME280;43720;47.462;19.030;2023-05-15T13:29:22;99662.97;;;19.58;73.21
57904;BME280;43720;47.462;19.030;2023-05-15T13:32:25;99659.13;;;19.41;74.61
57904;BME280;43720;47.462;19.030;2023-05-15T13:35:27;99660.81;;;19.16;73.38
57904;BME280;43720;47.462;19.030;2023-05-15T13:38:29;99660.13;;;19.11;74.03
57904;BME280;43720;47.462;19.030;2023-05-15T13:41:32;99663.44;;;18.89;78.94
57904;BME280;43720;47.462;19.030;2023-05-15T13:44:34;99666.59;;;18.72;80.57
57904;BME280;43720;47.462;19.030;2023-05-15T13:47:38;99663.84;;;18.46;79.90
57904;BME280;43720;47.462;19.030;2023-05-15T13:50:41;99661.28;;;18.12;77.63
57904;BME280;43720;47.462;19.030;2023-05-15T13:53:44;99661.53;;;18.02;77.32
57904;BME280;43720;47.462;19.030;2023-05-15T13:56:46;99658.16;;;17.97;78.73
57904;BME280;43720;47.462;19.030;2023-05-15T13:59:49;99654.81;;;17.91;80.46
57904;BME280;43720;47.462;19.030;2023-05-15T14:02:51;99660.34;;;17.81;83.09
57904;BME280;43720;47.462;19.030;2023-05-15T14:05:53;99672.84;;;17.73;84.94
57904;BME280;43720;47.462;19.030;2023-05-15T14:08:56;99671.31;;;17.66;86.55
57904;BME280;43720;47.462;19.030;2023-05-15T14:11:58;99679.22;;;17.66;89.90
57904;BME280;43720;47.462;19.030;2023-05-15T14:15:00;99686.31;;;17.64;90.74
57904;BME280;43720;47.462;19.030;2023-05-15T14:18:03;99686.38;;;17.63;93.46
57904;BME280;43720;47.462;19.030;2023-05-15T14:21:05;99686.38;;;17.61;95.00
57904;BME280;43720;47.462;19.030;2023-05-15T14:24:07;99680.47;;;17.51;95.89
57904;BME280;43720;47.462;19.030;2023-05-15T14:27:10;99678.97;;;17.41;97.29
57904;BME280;43720;47.462;19.030;2023-05-15T14:30:12;99684.25;;;17.41;98.82
57904;BME280;43720;47.462;19.030;2023-05-15T14:33:15;99685.22;;;17.37;99.63
57904;BME280;43720;47.462;19.030;2023-05-15T14:36:17;99691.38;;;17.39;99.69
57904;BME280;43720;47.462;19.030;2023-05-15T14:39:20;99693.91;;;17.42;100.00
57904;BME280;43720;47.462;19.030;2023-05-15T14:42:22;99693.81;;;17.47;100.00
57904;BME280;43720;47.462;19.030;2023-05-15T14:45:24;99700.41;;;17.29;100.00
57904;BME280;43720;47.462;19.030;2023-05-15T14:48:27;99690.13;;;17.17;100.00
57904;BME280;43720;47.462;19.030;2023-05-15T14:51:31;99707.12;;;17.05;100.00
57904;BME280;43720;47.462;19.030;2023-05-15T14:54:33;99701.00;;;17.03;100.00
57904;BME280;43720;47.462;19.030;2023-05-15T14:57:37;99704.44;;;17.06;100.00
57904;BME280;43720;47.462;19.030;2023-05-15T15:00:39;99708.81;;;17.07;100.00
57904;BME280;43720;47.462;19.030;2023-05-15T15:03:41;99714.09;;;17.07;100.00
57904;BME280;43720;47.462;19.030;2023-05-15T15:06:46;99712.59;;;16.97;100.00
57904;BME280;43720;47.462;19.030;2023-05-15T15:09:48;99719.53;;;17.01;100.00
57904;BME280;43720;47.462;19.030;2023-05-15T15:12:51;99722.19;;;17.01;100.00
57904;BME280;43720;47.462;19.030;2023-05-15T15:15:53;99722.41;;;16.91;100.00
57904;BME280;43720;47.462;19.030;2023-05-15T15:18:55;99719.00;;;16.85;100.00
